sensor_id;sensor_type;location;lat;lon;timestamp;P1;durP1;ratioP1;P2;durP2;ratioP2
16826;SDS011;8530;49.540;8.576;2024-02-15T00:00:46;9.40;;;6.00;;
16826;SDS011;8530;49.540;8.576;2024-02-15T00:03:13;6.07;;;4.80;;
16826;SDS011;8530;49.540;8.576;2024-02-15T00:05:41;6.57;;;5.27;;
16826;SDS011;8530;49.540;8.576;2024-02-15T00:08:11;9.07;;;6.03;;
16826;SDS011;8530;49.540;8.576;2024-02-15T00:10:40;6.17;;;5.50;;
16826;SDS011;8530;49.540;8.576;2024-02-15T00:13:06;5.10;;;4.60;;
16826;SDS011;8530;49.540;8.576;2024-02-15T00:15:33;7.33;;;5.40;;
16826;SDS011;8530;49.540;8.576;2024-02-15T00:18:01;7.53;;;5.50;;
16826;SDS011;8530;49.540;8.576;2024-02-15T00:20:28;7.57;;;5.40;;
16826;SDS011;8530;49.540;8.576;2024-02-15T00:22:56;10.87;;;5.27;;
16826;SDS011;8530;49.540;8.576;2024-02-15T00:25:23;6.03;;;5.47;;
16826;SDS011;8530;49.540;8.576;2024-02-15T00:27:51;6.67;;;5.77;;
16826;SDS011;8530;49.540;8.576;2024-02-15T00:30:17;6.80;;;5.97;;
16826;SDS011;8530;49.540;8.576;2024-02-15T00:32:44;9.00;;;5.80;;
16826;SDS011;8530;49.540;8.576;2024-02-15T00:35:11;6.83;;;4.87;;
16826;SDS011;8530;49.540;8.576;2024-02-15T00:37:38;8.40;;;5.93;;
16826;SDS011;8530;49.540;8.576;2024-02-15T00:40:08;11.63;;;5.20;;
16826;SDS011;8530;49.540;8.576;2024-02-15T00:42:34;11.03;;;6.80;;
16826;SDS011;8530;49.540;8.576;2024-02-15T00:45:01;6.90;;;6.20;;
16826;SDS011;8530;49.540;8.576;2024-02-15T00:47:28;11.97;;;6.43;;
16826;SDS011;8530;49.540;8.576;2024-02-15T00:49:55;7.70;;;5.73;;
16826;SDS011;8530;49.540;8.576;2024-02-15T00:52:22;7.20;;;5.40;;
16826;SDS011;8530;49.540;8.576;2024-02-15T00:54:49;7.70;;;5.40;;
16826;SDS011;8530;49.540;8.576;2024-02-15T00:57:17;7.13;;;5.50;;
16826;SDS011;8530;49.540;8.576;2024-02-15T00:59:44;7.33;;;5.20;;
16826;SDS011;8530;49.540;8.576;2024-02-15T01:02:10;8.50;;;5.97;;
16826;SDS011;8530;49.540;8.576;2024-02-15T01:04:37;7.63;;;5.30;;
16826;SDS011;8530;49.540;8.576;2024-02-15T01:07:05;6.27;;;4.80;;
16826;SDS011;8530;49.540;8.576;2024-02-15T01:09:33;9.63;;;5.83;;
16826;SDS011;8530;49.540;8.576;2024-02-15T01:11:59;7.93;;;5.40;;
16826;SDS011;8530;49.540;8.576;2024-02-15T01:14:29;10.13;;;5.10;;
16826;SDS011;8530;49.540;8.576;2024-02-15T01:16:56;6.53;;;4.03;;
16826;SDS011;8530;49.540;8.576;2024-02-15T01:19:23;5.57;;;4.70;;
16826;SDS011;8530;49.540;8.576;2024-02-15T01:21:50;6.93;;;5.17;;
16826;SDS011;8530;49.540;8.576;2024-02-15T01:24:18;9.10;;;5.87;;
16826;SDS011;8530;49.540;8.576;2024-02-15T01:26:45;8.40;;;4.67;;
16826;SDS011;8530;49.540;8.576;2024-02-15T01:29:12;5.47;;;4.93;;
16826;SDS011;8530;49.540;8.576;2024-02-15T01:31:40;5.87;;;3.87;;
16826;SDS011;8530;49.540;8.576;2024-02-15T01:34:08;4.80;;;4.30;;
16826;SDS011;8530;49.540;8.576;2024-02-15T01:36:35;7.07;;;4.67;;
16826;SDS011;8530;49.540;8.576;2024-02-15T01:39:02;6.30;;;4.83;;
16826;SDS011;8530;49.540;8.576;2024-02-15T01:41:28;5.20;;;4.27;;
16826;SDS011;8530;49.540;8.576;2024-02-15T01:43:55;6.97;;;4.37;;
16826;SDS011;8530;49.540;8.576;2024-02-15T01:46:22;8.23;;;4.47;;
16826;SDS011;8530;49.540;8.576;2024-02-15T01:48:50;6.50;;;4.37;;
16826;SDS011;8530;49.540;8.576;2024-02-15T01:51:17;7.17;;;4.90;;
16826;SDS011;8530;49.540;8.576;2024-02-15T01:53:44;9.20;;;5.33;;
16826;SDS011;8530;49.540;8.576;2024-02-15T01:56:12;5.73;;;5.20;;
16826;SDS011;8530;49.540;8.576;2024-02-15T01:58:42;8.50;;;5.10;;
16826;SDS011;8530;49.540;8.576;2024-02-15T02:01:10;9.03;;;4.67;;
16826;SDS011;8530;49.540;8.576;2024-02-15T02:03:38;7.93;;;4.47;;
16826;SDS011;8530;49.540;8.576;2024-02-15T02:06:06;12.50;;;5.53;;
16826;SDS011;8530;49.540;8.576;2024-02-15T02:08:33;7.40;;;4.80;;
16826;SDS011;8530;49.540;8.576;2024-02-15T02:11:01;5.80;;;5.00;;
16826;SDS011;8530;49.540;8.576;2024-02-15T02:13:28;4.93;;;4.40;;
16826;SDS011;8530;49.540;8.576;2024-02-15T02:15:55;4.93;;;4.43;;
16826;SDS011;8530;49.540;8.576;2024-02-15T02:18:22;8.33;;;5.50;;
16826;SDS011;8530;49.540;8.576;2024-02-15T02:20:50;12.43;;;6.40;;
16826;SDS011;8530;49.540;8.576;2024-02-15T02:23:18;6.00;;;5.13;;
16826;SDS011;8530;49.540;8.576;2024-02-15T02:25:49;12.47;;;6.27;;
16826;SDS011;8530;49.540;8.576;2024-02-15T02:28:16;6.00;;;5.20;;
16826;SDS011;8530;49.540;8.576;2024-02-15T02:30:42;8.23;;;5.60;;
16826;SDS011;8530;49.540;8.576;2024-02-15T02:33:10;10.10;;;5.40;;
16826;SDS011;8530;49.540;8.576;2024-02-15T02:35:43;6.97;;;5.30;;
16826;SDS011;8530;49.540;8.576;2024-02-15T02:38:11;11.10;;;5.30;;
16826;SDS011;8530;49.540;8.576;2024-02-15T02:40:39;10.23;;;5.90;;
16826;SDS011;8530;49.540;8.576;2024-02-15T02:43:07;6.00;;;5.33;;
16826;SDS011;8530;49.540;8.576;2024-02-15T02:45:34;5.70;;;5.20;;
16826;SDS011;8530;49.540;8.576;2024-02-15T02:48:01;9.60;;;5.73;;
16826;SDS011;8530;49.540;8.576;2024-02-15T02:50:28;8.50;;;5.87;;
16826;SDS011;8530;49.540;8.576;2024-02-15T02:52:54;7.97;;;5.37;;
16826;SDS011;8530;49.540;8.576;2024-02-15T02:55:22;5.83;;;5.23;;
16826;SDS011;8530;49.540;8.576;2024-02-15T02:57:49;7.47;;;5.13;;
16826;SDS011;8530;49.540;8.576;2024-02-15T03:00:18;7.53;;;5.53;;
16826;SDS011;8530;49.540;8.576;2024-02-15T03:02:45;6.80;;;5.10;;
16826;SDS011;8530;49.540;8.576;2024-02-15T03:05:13;6.23;;;4.90;;
16826;SDS011;8530;49.540;8.576;2024-02-15T03:07:39;10.83;;;4.60;;
16826;SDS011;8530;49.540;8.576;2024-02-15T03:10:07;6.27;;;5.10;;
16826;SDS011;8530;49.540;8.576;2024-02-15T03:12:38;5.23;;;4.73;;
16826;SDS011;8530;49.540;8.576;2024-02-15T03:15:06;6.03;;;4.80;;
16826;SDS011;8530;49.540;8.576;2024-02-15T03:17:37;9.40;;;5.43;;
16826;SDS011;8530;49.540;8.576;2024-02-15T03:20:05;5.63;;;4.30;;
16826;SDS011;8530;49.540;8.576;2024-02-15T03:22:36;8.77;;;5.33;;
16826;SDS011;8530;49.540;8.576;2024-02-15T03:25:03;6.17;;;4.23;;
16826;SDS011;8530;49.540;8.576;2024-02-15T03:27:32;7.67;;;5.07;;
16826;SDS011;8530;49.540;8.576;2024-02-15T03:30:03;4.97;;;4.47;;
16826;SDS011;8530;49.540;8.576;2024-02-15T03:32:30;6.10;;;4.50;;
16826;SDS011;8530;49.540;8.576;2024-02-15T03:34:59;7.10;;;4.40;;
16826;SDS011;8530;49.540;8.576;2024-02-15T03:37:26;7.43;;;4.90;;
16826;SDS011;8530;49.540;8.576;2024-02-15T03:39:52;14.87;;;4.53;;
16826;SDS011;8530;49.540;8.576;2024-02-15T03:42:19;9.80;;;4.73;;
16826;SDS011;8530;49.540;8.576;2024-02-15T03:44:48;4.70;;;3.90;;
16826;SDS011;8530;49.540;8.576;2024-02-15T03:47:15;5.50;;;4.37;;
16826;SDS011;8530;49.540;8.576;2024-02-15T03:49:42;4.73;;;4.33;;
16826;SDS011;8530;49.540;8.576;2024-02-15T03:52:10;6.37;;;4.67;;
16826;SDS011;8530;49.540;8.576;2024-02-15T03:54:36;6.23;;;4.53;;
16826;SDS011;8530;49.540;8.576;2024-02-15T03:57:03;8.20;;;4.63;;
16826;SDS011;8530;49.540;8.576;2024-02-15T03:59:31;6.70;;;4.60;;
16826;SDS011;8530;49.540;8.576;2024-02-15T04:02:00;8.40;;;4.60;;
16826;SDS011;8530;49.540;8.576;2024-02-15T04:04:27;7.70;;;4.80;;
16826;SDS011;8530;49.540;8.576;2024-02-15T04:06:55;5.57;;;4.30;;
16826;SDS011;8530;49.540;8.576;2024-02-15T04:09:23;5.53;;;4.40;;
16826;SDS011;8530;49.540;8.576;2024-02-15T04:11:50;5.80;;;4.23;;
16826;SDS011;8530;49.540;8.576;2024-02-15T04:14:27;6.27;;;5.13;;
16826;SDS011;8530;49.540;8.576;2024-02-15T04:16:53;7.47;;;4.43;;
16826;SDS011;8530;49.540;8.576;2024-02-15T04:19:22;7.53;;;5.17;;
16826;SDS011;8530;49.540;8.576;2024-02-15T04:21:49;6.00;;;5.40;;
16826;SDS011;8530;49.540;8.576;2024-02-15T04:24:16;5.33;;;4.43;;
16826;SDS011;8530;49.540;8.576;2024-02-15T04:26:44;7.50;;;4.47;;
16826;SDS011;8530;49.540;8.576;2024-02-15T04:29:13;6.57;;;4.60;;
16826;SDS011;8530;49.540;8.576;2024-02-15T04:31:40;6.37;;;3.77;;
16826;SDS011;8530;49.540;8.576;2024-02-15T04:34:07;5.40;;;4.73;;
16826;SDS011;8530;49.540;8.576;2024-02-15T04:36:35;6.17;;;4.10;;
16826;SDS011;8530;49.540;8.576;2024-02-15T04:39:02;10.07;;;4.30;;
16826;SDS011;8530;49.540;8.576;2024-02-15T04:41:30;8.83;;;4.97;;
16826;SDS011;8530;49.540;8.576;2024-02-15T04:43:58;5.30;;;4.43;;
16826;SDS011;8530;49.540;8.576;2024-02-15T04:46:24;6.70;;;4.60;;
16826;SDS011;8530;49.540;8.576;2024-02-15T04:48:51;4.97;;;3.57;;
16826;SDS011;8530;49.540;8.576;2024-02-15T04:51:18;8.23;;;4.77;;
16826;SDS011;8530;49.540;8.576;2024-02-15T04:53:47;7.80;;;4.70;;
16826;SDS011;8530;49.540;8.576;2024-02-15T04:56:26;4.20;;;3.90;;
16826;SDS011;8530;49.540;8.576;2024-02-15T04:58:53;7.40;;;4.97;;
16826;SDS011;8530;49.540;8.576;2024-02-15T05:01:21;11.43;;;4.37;;
16826;SDS011;8530;49.540;8.576;2024-02-15T05:03:47;6.57;;;4.77;;
16826;SDS011;8530;49.540;8.576;2024-02-15T05:06:14;7.20;;;4.57;;
16826;SDS011;8530;49.540;8.576;2024-02-15T05:08:41;5.23;;;4.67;;
16826;SDS011;8530;49.540;8.576;2024-02-15T05:11:08;5.00;;;4.50;;
16826;SDS011;8530;49.540;8.576;2024-02-15T05:13:41;10.43;;;5.40;;
16826;SDS011;8530;49.540;8.576;2024-02-15T05:16:08;6.53;;;5.00;;
16826;SDS011;8530;49.540;8.576;2024-02-15T05:18:36;6.57;;;4.63;;
16826;SDS011;8530;49.540;8.576;2024-02-15T05:21:05;9.33;;;4.47;;
16826;SDS011;8530;49.540;8.576;2024-02-15T05:23:34;8.97;;;4.80;;
16826;SDS011;8530;49.540;8.576;2024-02-15T05:26:02;8.47;;;4.17;;
16826;SDS011;8530;49.540;8.576;2024-02-15T05:28:29;7.80;;;4.87;;
16826;SDS011;8530;49.540;8.576;2024-02-15T05:31:10;10.63;;;5.10;;
16826;SDS011;8530;49.540;8.576;2024-02-15T05:33:39;5.97;;;4.57;;
16826;SDS011;8530;49.540;8.576;2024-02-15T05:36:08;6.03;;;4.57;;
16826;SDS011;8530;49.540;8.576;2024-02-15T05:38:36;6.37;;;4.67;;
16826;SDS011;8530;49.540;8.576;2024-02-15T05:41:03;7.67;;;3.90;;
16826;SDS011;8530;49.540;8.576;2024-02-15T05:43:30;7.97;;;5.10;;
16826;SDS011;8530;49.540;8.576;2024-02-15T05:45:57;4.73;;;4.23;;
16826;SDS011;8530;49.540;8.576;2024-02-15T05:48:25;4.33;;;3.93;;
16826;SDS011;8530;49.540;8.576;2024-02-15T05:50:54;5.67;;;4.70;;
16826;SDS011;8530;49.540;8.576;2024-02-15T05:53:22;7.80;;;4.10;;
16826;SDS011;8530;49.540;8.576;2024-02-15T05:55:49;9.33;;;4.33;;
16826;SDS011;8530;49.540;8.576;2024-02-15T05:58:16;12.00;;;4.37;;
16826;SDS011;8530;49.540;8.576;2024-02-15T06:00:43;8.90;;;4.50;;
16826;SDS011;8530;49.540;8.576;2024-02-15T06:03:14;8.07;;;4.47;;
16826;SDS011;8530;49.540;8.576;2024-02-15T06:05:41;4.73;;;4.20;;
16826;SDS011;8530;49.540;8.576;2024-02-15T06:08:09;4.23;;;3.73;;
16826;SDS011;8530;49.540;8.576;2024-02-15T06:10:38;4.60;;;3.97;;
16826;SDS011;8530;49.540;8.576;2024-02-15T06:13:04;5.30;;;3.97;;
16826;SDS011;8530;49.540;8.576;2024-02-15T06:15:31;5.90;;;3.83;;
16826;SDS011;8530;49.540;8.576;2024-02-15T06:17:58;4.23;;;3.83;;
16826;SDS011;8530;49.540;8.576;2024-02-15T06:20:25;5.80;;;4.13;;
16826;SDS011;8530;49.540;8.576;2024-02-15T06:22:55;16.87;;;6.37;;
16826;SDS011;8530;49.540;8.576;2024-02-15T06:25:23;6.67;;;3.87;;
16826;SDS011;8530;49.540;8.576;2024-02-15T06:27:50;13.87;;;5.57;;
16826;SDS011;8530;49.540;8.576;2024-02-15T06:30:23;10.93;;;3.90;;
16826;SDS011;8530;49.540;8.576;2024-02-15T06:33:07;5.20;;;4.00;;
16826;SDS011;8530;49.540;8.576;2024-02-15T06:36:03;8.40;;;4.40;;
16826;SDS011;8530;49.540;8.576;2024-02-15T06:38:48;5.60;;;3.50;;
16826;SDS011;8530;49.540;8.576;2024-02-15T06:41:34;4.37;;;3.57;;
16826;SDS011;8530;49.540;8.576;2024-02-15T06:44:00;10.97;;;4.90;;
16826;SDS011;8530;49.540;8.576;2024-02-15T06:46:27;10.50;;;4.23;;
16826;SDS011;8530;49.540;8.576;2024-02-15T06:48:54;5.40;;;4.43;;
16826;SDS011;8530;49.540;8.576;2024-02-15T06:51:23;7.60;;;4.47;;
16826;SDS011;8530;49.540;8.576;2024-02-15T06:53:49;7.27;;;5.00;;
16826;SDS011;8530;49.540;8.576;2024-02-15T06:56:20;5.17;;;3.83;;
16826;SDS011;8530;49.540;8.576;2024-02-15T06:58:49;5.47;;;4.40;;
16826;SDS011;8530;49.540;8.576;2024-02-15T07:01:16;9.13;;;5.20;;
16826;SDS011;8530;49.540;8.576;2024-02-15T07:03:43;9.00;;;5.10;;
16826;SDS011;8530;49.540;8.576;2024-02-15T07:06:10;7.23;;;3.73;;
16826;SDS011;8530;49.540;8.576;2024-02-15T07:08:38;8.80;;;4.43;;
16826;SDS011;8530;49.540;8.576;2024-02-15T07:11:06;7.27;;;4.70;;
16826;SDS011;8530;49.540;8.576;2024-02-15T07:13:34;5.43;;;3.90;;
16826;SDS011;8530;49.540;8.576;2024-02-15T07:16:05;8.37;;;4.33;;
16826;SDS011;8530;49.540;8.576;2024-02-15T07:18:33;8.27;;;4.50;;
16826;SDS011;8530;49.540;8.576;2024-02-15T07:21:00;4.97;;;4.23;;
16826;SDS011;8530;49.540;8.576;2024-02-15T07:23:29;4.73;;;4.23;;
16826;SDS011;8530;49.540;8.576;2024-02-15T07:25:55;9.57;;;5.43;;
16826;SDS011;8530;49.540;8.576;2024-02-15T07:28:22;5.63;;;3.70;;
16826;SDS011;8530;49.540;8.576;2024-02-15T07:30:51;5.57;;;4.07;;
16826;SDS011;8530;49.540;8.576;2024-02-15T07:33:20;7.27;;;4.57;;
16826;SDS011;8530;49.540;8.576;2024-02-15T07:35:48;5.40;;;4.03;;
16826;SDS011;8530;49.540;8.576;2024-02-15T07:38:16;6.90;;;3.40;;
16826;SDS011;8530;49.540;8.576;2024-02-15T07:40:43;9.67;;;4.30;;
16826;SDS011;8530;49.540;8.576;2024-02-15T07:43:09;7.13;;;4.00;;
16826;SDS011;8530;49.540;8.576;2024-02-15T07:45:36;9.67;;;4.60;;
16826;SDS011;8530;49.540;8.576;2024-02-15T07:48:04;8.23;;;4.00;;
16826;SDS011;8530;49.540;8.576;2024-02-15T07:50:32;3.87;;;3.53;;
16826;SDS011;8530;49.540;8.576;2024-02-15T07:52:59;6.40;;;4.00;;
16826;SDS011;8530;49.540;8.576;2024-02-15T07:55:25;8.70;;;3.87;;
16826;SDS011;8530;49.540;8.576;2024-02-15T07:57:53;8.87;;;3.77;;
16826;SDS011;8530;49.540;8.576;2024-02-15T08:00:21;6.00;;;4.00;;
16826;SDS011;8530;49.540;8.576;2024-02-15T08:02:47;3.43;;;3.03;;
16826;SDS011;8530;49.540;8.576;2024-02-15T08:05:14;5.23;;;3.87;;
16826;SDS011;8530;49.540;8.576;2024-02-15T08:07:43;6.90;;;3.80;;
16826;SDS011;8530;49.540;8.576;2024-02-15T08:10:12;11.80;;;3.30;;
16826;SDS011;8530;49.540;8.576;2024-02-15T08:12:40;4.93;;;3.67;;
16826;SDS011;8530;49.540;8.576;2024-02-15T08:15:07;5.50;;;3.90;;
16826;SDS011;8530;49.540;8.576;2024-02-15T08:17:37;7.93;;;4.20;;
16826;SDS011;8530;49.540;8.576;2024-02-15T08:20:07;7.27;;;4.20;;
16826;SDS011;8530;49.540;8.576;2024-02-15T08:22:36;7.30;;;4.30;;
16826;SDS011;8530;49.540;8.576;2024-02-15T08:25:06;5.97;;;3.50;;
16826;SDS011;8530;49.540;8.576;2024-02-15T08:27:35;6.53;;;4.00;;
16826;SDS011;8530;49.540;8.576;2024-02-15T08:30:06;5.20;;;4.40;;
16826;SDS011;8530;49.540;8.576;2024-02-15T08:32:34;6.07;;;4.00;;
16826;SDS011;8530;49.540;8.576;2024-02-15T08:35:01;7.67;;;3.80;;
16826;SDS011;8530;49.540;8.576;2024-02-15T08:37:29;10.40;;;3.50;;
16826;SDS011;8530;49.540;8.576;2024-02-15T08:39:57;5.30;;;3.57;;
16826;SDS011;8530;49.540;8.576;2024-02-15T08:42:26;7.27;;;4.07;;
16826;SDS011;8530;49.540;8.576;2024-02-15T08:44:53;5.30;;;3.93;;
16826;SDS011;8530;49.540;8.576;2024-02-15T08:47:20;6.83;;;3.60;;
16826;SDS011;8530;49.540;8.576;2024-02-15T08:49:47;7.90;;;3.67;;
16826;SDS011;8530;49.540;8.576;2024-02-15T08:52:13;9.17;;;4.07;;
16826;SDS011;8530;49.540;8.576;2024-02-15T08:54:43;9.53;;;3.53;;
16826;SDS011;8530;49.540;8.576;2024-02-15T08:57:09;8.13;;;3.20;;
16826;SDS011;8530;49.540;8.576;2024-02-15T08:59:38;4.90;;;2.53;;
16826;SDS011;8530;49.540;8.576;2024-02-15T09:02:07;5.30;;;3.10;;
16826;SDS011;8530;49.540;8.576;2024-02-15T09:04:34;10.80;;;2.73;;
16826;SDS011;8530;49.540;8.576;2024-02-15T09:07:01;6.93;;;2.60;;
16826;SDS011;8530;49.540;8.576;2024-02-15T09:09:29;4.60;;;2.90;;
16826;SDS011;8530;49.540;8.576;2024-02-15T09:11:56;4.57;;;3.57;;
16826;SDS011;8530;49.540;8.576;2024-02-15T09:14:23;3.83;;;2.30;;
16826;SDS011;8530;49.540;8.576;2024-02-15T09:16:51;6.83;;;3.30;;
16826;SDS011;8530;49.540;8.576;2024-02-15T09:19:17;4.93;;;3.10;;
16826;SDS011;8530;49.540;8.576;2024-02-15T09:21:45;5.50;;;3.10;;
16826;SDS011;8530;49.540;8.576;2024-02-15T09:24:11;7.60;;;2.90;;
16826;SDS011;8530;49.540;8.576;2024-02-15T09:26:41;7.23;;;3.80;;
16826;SDS011;8530;49.540;8.576;2024-02-15T09:29:08;5.00;;;3.50;;
16826;SDS011;8530;49.540;8.576;2024-02-15T09:31:34;4.17;;;3.70;;
16826;SDS011;8530;49.540;8.576;2024-02-15T09:34:03;6.67;;;3.40;;
16826;SDS011;8530;49.540;8.576;2024-02-15T09:36:33;5.77;;;3.17;;
16826;SDS011;8530;49.540;8.576;2024-02-15T09:39:00;8.47;;;3.53;;
16826;SDS011;8530;49.540;8.576;2024-02-15T09:41:27;5.60;;;3.23;;
16826;SDS011;8530;49.540;8.576;2024-02-15T09:43:54;5.27;;;2.87;;
16826;SDS011;8530;49.540;8.576;2024-02-15T09:46:20;3.93;;;3.00;;
16826;SDS011;8530;49.540;8.576;2024-02-15T09:48:50;5.07;;;3.10;;
16826;SDS011;8530;49.540;8.576;2024-02-15T09:51:24;7.47;;;3.27;;
16826;SDS011;8530;49.540;8.576;2024-02-15T09:53:51;6.53;;;3.67;;
16826;SDS011;8530;49.540;8.576;2024-02-15T09:56:19;4.13;;;2.80;;
16826;SDS011;8530;49.540;8.576;2024-02-15T09:58:49;5.70;;;2.57;;
16826;SDS011;8530;49.540;8.576;2024-02-15T10:01:17;5.10;;;3.00;;
16826;SDS011;8530;49.540;8.576;2024-02-15T10:03:48;5.50;;;2.53;;
16826;SDS011;8530;49.540;8.576;2024-02-15T10:06:16;7.00;;;2.33;;
16826;SDS011;8530;49.540;8.576;2024-02-15T10:08:45;6.53;;;2.80;;
16826;SDS011;8530;49.540;8.576;2024-02-15T10:11:12;4.53;;;2.20;;
16826;SDS011;8530;49.540;8.576;2024-02-15T10:13:39;3.70;;;2.20;;
16826;SDS011;8530;49.540;8.576;2024-02-15T10:16:13;6.90;;;2.77;;
16826;SDS011;8530;49.540;8.576;2024-02-15T10:18:41;6.07;;;2.40;;
16826;SDS011;8530;49.540;8.576;2024-02-15T10:21:08;3.50;;;1.90;;
16826;SDS011;8530;49.540;8.576;2024-02-15T10:23:36;4.07;;;2.23;;
16826;SDS011;8530;49.540;8.576;2024-02-15T10:26:10;4.73;;;2.47;;
16826;SDS011;8530;49.540;8.576;2024-02-15T10:28:48;4.50;;;1.80;;
16826;SDS011;8530;49.540;8.576;2024-02-15T10:31:32;4.27;;;2.97;;
16826;SDS011;8530;49.540;8.576;2024-02-15T10:34:01;3.50;;;2.07;;
16826;SDS011;8530;49.540;8.576;2024-02-15T10:36:30;9.40;;;2.20;;
16826;SDS011;8530;49.540;8.576;2024-02-15T10:39:10;4.77;;;2.60;;
16826;SDS011;8530;49.540;8.576;2024-02-15T10:41:43;10.83;;;3.27;;
16826;SDS011;8530;49.540;8.576;2024-02-15T10:44:11;6.53;;;3.00;;
16826;SDS011;8530;49.540;8.576;2024-02-15T10:46:41;8.60;;;2.40;;
16826;SDS011;8530;49.540;8.576;2024-02-15T10:49:08;6.00;;;2.50;;
16826;SDS011;8530;49.540;8.576;2024-02-15T10:51:34;5.20;;;2.57;;
16826;SDS011;8530;49.540;8.576;2024-02-15T10:54:04;4.30;;;2.50;;
16826;SDS011;8530;49.540;8.576;2024-02-15T10:56:37;4.57;;;2.37;;
16826;SDS011;8530;49.540;8.576;2024-02-15T10:59:16;4.40;;;2.03;;
16826;SDS011;8530;49.540;8.576;2024-02-15T11:01:43;6.90;;;2.10;;
16826;SDS011;8530;49.540;8.576;2024-02-15T11:04:12;6.07;;;2.87;;
16826;SDS011;8530;49.540;8.576;2024-02-15T11:06:42;4.90;;;2.63;;
16826;SDS011;8530;49.540;8.576;2024-02-15T11:09:09;5.30;;;2.23;;
16826;SDS011;8530;49.540;8.576;2024-02-15T11:11:38;4.90;;;2.43;;
16826;SDS011;8530;49.540;8.576;2024-02-15T11:14:26;3.93;;;2.33;;
16826;SDS011;8530;49.540;8.576;2024-02-15T11:16:54;10.90;;;2.70;;
16826;SDS011;8530;49.540;8.576;2024-02-15T11:22:16;2.80;;;1.93;;
16826;SDS011;8530;49.540;8.576;2024-02-15T11:24:46;9.30;;;2.83;;
16826;SDS011;8530;49.540;8.576;2024-02-15T11:27:23;6.03;;;2.30;;
16826;SDS011;8530;49.540;8.576;2024-02-15T11:29:54;8.97;;;2.20;;
16826;SDS011;8530;49.540;8.576;2024-02-15T11:32:39;3.63;;;1.77;;
16826;SDS011;8530;49.540;8.576;2024-02-15T11:35:09;3.23;;;2.30;;
16826;SDS011;8530;49.540;8.576;2024-02-15T11:37:51;5.83;;;2.03;;
16826;SDS011;8530;49.540;8.576;2024-02-15T11:40:19;4.73;;;1.83;;
16826;SDS011;8530;49.540;8.576;2024-02-15T11:42:48;4.13;;;2.33;;
16826;SDS011;8530;49.540;8.576;2024-02-15T11:45:17;3.00;;;2.00;;
16826;SDS011;8530;49.540;8.576;2024-02-15T11:47:47;3.93;;;2.00;;
16826;SDS011;8530;49.540;8.576;2024-02-15T11:50:15;4.77;;;2.00;;
16826;SDS011;8530;49.540;8.576;2024-02-15T11:52:43;4.27;;;1.70;;
16826;SDS011;8530;49.540;8.576;2024-02-15T11:55:11;5.03;;;2.00;;
16826;SDS011;8530;49.540;8.576;2024-02-15T11:57:39;2.73;;;2.00;;
16826;SDS011;8530;49.540;8.576;2024-02-15T12:00:21;4.83;;;1.90;;
16826;SDS011;8530;49.540;8.576;2024-02-15T12:03:05;5.60;;;2.40;;
16826;SDS011;8530;49.540;8.576;2024-02-15T12:05:50;6.47;;;2.80;;
16826;SDS011;8530;49.540;8.576;2024-02-15T12:08:34;6.07;;;2.10;;
16826;SDS011;8530;49.540;8.576;2024-02-15T12:11:19;3.90;;;2.13;;
16826;SDS011;8530;49.540;8.576;2024-02-15T12:14:03;5.67;;;1.90;;
16826;SDS011;8530;49.540;8.576;2024-02-15T12:16:48;6.23;;;2.30;;
16826;SDS011;8530;49.540;8.576;2024-02-15T12:19:43;4.40;;;2.43;;
16826;SDS011;8530;49.540;8.576;2024-02-15T12:22:09;3.40;;;1.63;;
16826;SDS011;8530;49.540;8.576;2024-02-15T12:24:37;5.83;;;1.87;;
16826;SDS011;8530;49.540;8.576;2024-02-15T12:27:04;2.40;;;1.67;;
16826;SDS011;8530;49.540;8.576;2024-02-15T12:29:31;5.17;;;2.17;;
16826;SDS011;8530;49.540;8.576;2024-02-15T12:32:01;3.07;;;1.93;;
16826;SDS011;8530;49.540;8.576;2024-02-15T12:34:28;4.60;;;2.20;;
16826;SDS011;8530;49.540;8.576;2024-02-15T12:37:04;7.23;;;2.20;;
16826;SDS011;8530;49.540;8.576;2024-02-15T12:39:33;3.70;;;1.80;;
16826;SDS011;8530;49.540;8.576;2024-02-15T12:42:02;3.50;;;2.13;;
16826;SDS011;8530;49.540;8.576;2024-02-15T12:44:28;2.00;;;1.60;;
16826;SDS011;8530;49.540;8.576;2024-02-15T12:46:57;2.43;;;1.80;;
16826;SDS011;8530;49.540;8.576;2024-02-15T12:49:29;3.47;;;1.60;;
16826;SDS011;8530;49.540;8.576;2024-02-15T12:55:09;7.00;;;2.00;;
16826;SDS011;8530;49.540;8.576;2024-02-15T12:57:37;3.27;;;1.40;;
16826;SDS011;8530;49.540;8.576;2024-02-15T13:00:06;3.37;;;1.90;;
16826;SDS011;8530;49.540;8.576;2024-02-15T13:02:39;6.00;;;2.03;;
16826;SDS011;8530;49.540;8.576;2024-02-15T13:05:07;3.10;;;1.73;;
16826;SDS011;8530;49.540;8.576;2024-02-15T13:07:35;11.60;;;2.13;;
16826;SDS011;8530;49.540;8.576;2024-02-15T13:10:03;3.73;;;1.63;;
16826;SDS011;8530;49.540;8.576;2024-02-15T13:12:31;3.77;;;2.30;;
16826;SDS011;8530;49.540;8.576;2024-02-15T13:15:00;3.43;;;1.50;;
16826;SDS011;8530;49.540;8.576;2024-02-15T13:17:28;2.30;;;2.00;;
16826;SDS011;8530;49.540;8.576;2024-02-15T13:19:55;4.30;;;1.93;;
16826;SDS011;8530;49.540;8.576;2024-02-15T13:22:30;4.30;;;2.00;;
16826;SDS011;8530;49.540;8.576;2024-02-15T13:24:57;3.40;;;2.00;;
16826;SDS011;8530;49.540;8.576;2024-02-15T13:27:24;3.53;;;2.07;;
16826;SDS011;8530;49.540;8.576;2024-02-15T13:29:51;4.27;;;1.97;;
16826;SDS011;8530;49.540;8.576;2024-02-15T13:32:18;3.83;;;2.40;;
16826;SDS011;8530;49.540;8.576;2024-02-15T13:34:47;4.47;;;1.90;;
16826;SDS011;8530;49.540;8.576;2024-02-15T13:37:16;7.93;;;2.07;;
16826;SDS011;8530;49.540;8.576;2024-02-15T13:39:46;5.70;;;2.30;;
16826;SDS011;8530;49.540;8.576;2024-02-15T13:42:13;4.87;;;2.20;;
16826;SDS011;8530;49.540;8.576;2024-02-15T13:44:40;5.40;;;2.40;;
16826;SDS011;8530;49.540;8.576;2024-02-15T13:47:07;6.03;;;2.17;;
16826;SDS011;8530;49.540;8.576;2024-02-15T13:49:33;1.80;;;1.30;;
16826;SDS011;8530;49.540;8.576;2024-02-15T13:52:00;4.63;;;1.97;;
16826;SDS011;8530;49.540;8.576;2024-02-15T13:54:28;3.80;;;1.70;;
16826;SDS011;8530;49.540;8.576;2024-02-15T13:56:57;4.70;;;2.33;;
16826;SDS011;8530;49.540;8.576;2024-02-15T13:59:24;3.80;;;2.80;;
16826;SDS011;8530;49.540;8.576;2024-02-15T14:01:52;5.70;;;1.80;;
16826;SDS011;8530;49.540;8.576;2024-02-15T14:04:19;3.87;;;1.90;;
16826;SDS011;8530;49.540;8.576;2024-02-15T14:06:46;6.00;;;2.70;;
16826;SDS011;8530;49.540;8.576;2024-02-15T14:09:13;5.50;;;1.83;;
16826;SDS011;8530;49.540;8.576;2024-02-15T14:11:42;3.93;;;1.87;;
16826;SDS011;8530;49.540;8.576;2024-02-15T14:14:10;5.43;;;1.90;;
16826;SDS011;8530;49.540;8.576;2024-02-15T14:16:37;2.93;;;2.33;;
16826;SDS011;8530;49.540;8.576;2024-02-15T14:19:05;3.90;;;2.10;;
16826;SDS011;8530;49.540;8.576;2024-02-15T14:21:31;7.43;;;2.53;;
16826;SDS011;8530;49.540;8.576;2024-02-15T14:24:03;5.20;;;2.33;;
16826;SDS011;8530;49.540;8.576;2024-02-15T14:26:33;4.80;;;1.97;;
16826;SDS011;8530;49.540;8.576;2024-02-15T14:29:00;2.20;;;1.63;;
16826;SDS011;8530;49.540;8.576;2024-02-15T14:31:29;5.47;;;2.53;;
16826;SDS011;8530;49.540;8.576;2024-02-15T14:34:14;3.30;;;1.80;;
16826;SDS011;8530;49.540;8.576;2024-02-15T14:36:42;3.57;;;1.93;;
16826;SDS011;8530;49.540;8.576;2024-02-15T14:39:10;4.10;;;2.13;;
16826;SDS011;8530;49.540;8.576;2024-02-15T14:41:38;3.50;;;1.90;;
16826;SDS011;8530;49.540;8.576;2024-02-15T14:44:05;4.70;;;1.63;;
16826;SDS011;8530;49.540;8.576;2024-02-15T14:46:33;3.77;;;1.90;;
16826;SDS011;8530;49.540;8.576;2024-02-15T14:49:01;3.20;;;1.90;;
16826;SDS011;8530;49.540;8.576;2024-02-15T14:51:28;8.93;;;3.33;;
16826;SDS011;8530;49.540;8.576;2024-02-15T14:53:56;2.90;;;2.03;;
16826;SDS011;8530;49.540;8.576;2024-02-15T14:56:23;3.03;;;1.83;;
16826;SDS011;8530;49.540;8.576;2024-02-15T14:58:50;3.63;;;1.60;;
16826;SDS011;8530;49.540;8.576;2024-02-15T15:01:17;3.23;;;1.77;;
16826;SDS011;8530;49.540;8.576;2024-02-15T15:03:53;3.43;;;1.73;;
16826;SDS011;8530;49.540;8.576;2024-02-15T15:06:22;3.90;;;1.97;;
16826;SDS011;8530;49.540;8.576;2024-02-15T15:09:08;5.90;;;2.10;;
16826;SDS011;8530;49.540;8.576;2024-02-15T15:11:52;6.37;;;2.70;;
16826;SDS011;8530;49.540;8.576;2024-02-15T15:14:37;2.30;;;1.40;;
16826;SDS011;8530;49.540;8.576;2024-02-15T15:17:04;2.70;;;1.37;;